Logo AVAMET
Benvolgut visitant, si us plau, ingressa Recuperar contrasenya
AVAMET paisatges

Benigembla Ajuntament

Dades diàries. Acumulats / Últims 30 dies disponibles

Data Temperatura (°C) Humitat rel. (%) Pressió rel. (hPa) Vent (km/h) Precipitació
Mínima Mitjana Màxima Amplitud
tèrmica
Mínima Mitjana Màxima Mínima Mitjana Màxima Predom. Mitjana Ràfega
màxima
Total
(mm)
Índex-n
Mínima Mitjana Màxima Mínima Mitjana Màxima n
0 a 1
P0 max
mm 5'
Dades mensuals acumulades fins l'últim dia disponible
02/2020 3,8 8,9 13,0 13,9 13,6 19,7 26,4 22,6 20 68 94 1.015 1.027 1.036   6,3 56,3 5,4
Dades anuals acumulades fins l'últim dia disponible
2020 2,3 7,7 14,4 12,0 10,7 17,5 26,4 24,1 20 72 96 1.013 1.026 1.036   6,6 127,1 418,7
Últims 30 dies disponibles
27-02-2020 9,3     15,9     22,3 13,0 28 41 57 1.019 1.020 1.022 S 10,1 41,8 0,0
26-02-2020 13,0     16,3     20,8 7,8 24 44 62 1.017 1.018 1.021 S 13,8 56,3 0,0
25-02-2020 11,3     18,8     24,1 12,8 20 33 54 1.015 1.018 1.022 S 12,7 46,7 0,0
24-02-2020 7,8     14,6     22,8 15,0 32 52 68 1.022 1.027 1.032 S 7,4 29,0 0,0
23-02-2020 5,9     12,2     19,4 13,5 40 61 76 1.032 1.034 1.036 S 7,4 29,0 0,0
22-02-2020 6,4     12,0     19,6 13,2 36 62 79 1.031 1.033 1.035 SSW 7,2 27,4 0,0
21-02-2020 5,2     10,0     16,3 11,1 58 80 90 1.028 1.030 1.032 SSW 6,1 25,7 0,0
20-02-2020 5,4     10,4     16,7 11,3 65 82 91 1.025 1.027 1.030 SSW 6,4 24,1 0,0
19-02-2020 7,9     11,7     15,7 7,8 75 88 94 1.030 1.031 1.033 ESE 2,7 19,3 0,2
18-02-2020 11,0     12,3     13,8 2,8 75 90 93 1.029 1.031 1.033 ENE 2,1 29,0 4,8 0,32 0,80
17-02-2020 11,3     16,6     24,3 13,0 37 64 88 1.023 1.026 1.029 S 4,7 22,5 0,0
16-02-2020 7,8     14,1     20,6 12,8 63 78 92 1.025 1.027 1.029 S 5,0 25,7 0,0
15-02-2020 7,8     12,9     19,0 11,2 61 80 89 1.026 1.027 1.028 SSW 5,3 22,5 0,0
14-02-2020 9,6     13,6     19,8 10,2 52 71 86 1.024 1.025 1.027 SSW 6,8 29,0 0,0
13-02-2020 8,8     14,3     20,7 11,9 50 72 91 1.022 1.023 1.025 S 4,7 30,6 0,0
12-02-2020 10,0     13,3     17,6 7,6 62 77 87 1.023 1.024 1.026 S 5,0 24,1 0,0
11-02-2020 12,5     17,2     23,4 10,9 42 63 85 1.022 1.024 1.027 SSW 7,9 38,6 0,0
10-02-2020 11,2     17,4     23,6 12,4 44 58 75 1.027 1.029 1.032 SSW 9,0 43,5 0,0
09-02-2020 7,1     12,6     18,3 11,2 60 77 91 1.028 1.030 1.033 S 3,5 27,4 0,0
08-02-2020 6,1     11,0     17,1 11,0 63 81 93 1.025 1.026 1.028 SSW 4,2 24,1 0,2
07-02-2020 6,2     9,2     13,9 7,7 67 82 92 1.024 1.026 1.027 S 3,2 19,3 0,0
06-02-2020 3,8     8,6     15,6 11,8 56 80 91 1.026 1.028 1.030 S 3,4 20,9 0,0
05-02-2020 6,6     10,7     13,6 7,0 69 84 92 1.027 1.029 1.031 SSW 2,6 16,1 0,2
04-02-2020 12,6     19,4     26,4 13,8 21 42 68 1.022 1.025 1.028 SSW 8,0 53,1 0,0
03-02-2020 11,8     16,7     23,6 11,8 46 66 77 1.027 1.029 1.030 SSW 5,5 24,1 0,0
02-02-2020 12,6     16,4     22,2 9,6 52 70 84 1.027 1.028 1.030 SSW 5,6 19,3 0,0
01-02-2020 11,4     17,0     21,8 10,4 53 67 82 1.021 1.024 1.027 SSW 10,0 54,7 0,0
31-01-2020 14,4     16,5     20,1 5,7 51 61 68 1.022 1.023 1.024 SSO 11,9 48,3 0,0
30-01-2020 13,1     16,9     22,1 9,0 29 53 71 1.021 1.022 1.024 S 9,7 56,3 0,0
29-01-2020 14,4     16,4     19,8 5,4 53 63 69 1.021 1.023 1.024 SSW 10,1 40,2 0,0
Últims 13 mesos disponibles
01/2020 2,3 6,6 14,4 10,3 10,7 15,5 22,1 19,8 53 75 89 1.016 1.026 1.033 NNE 6,8 127,1 413,3
12/2019 4,2 9,4 18,7 13,1 12,1 17,4 24,7 20,5 44 70 94 1.004 1.020 1.034 NNE 7,8 99,8 259,2
11/2019 4,1 10,9 19,4 14,4 13,5 18,3 25,3 21,2 47 60 81 999 1.012 1.019 SE 9,6 74,0 15,2
10/2019 10,2 14,3 19,3 18,9 14,8 24,2 30,9 20,7 48 71 87 1.009 1.017 1.023 SW 4,5 67,6 86,2
09/2019 12,1 18,1 21,1 22,1 20,5 26,6 33,3 21,2 56 77 92 1.011 1.018 1.024 SW 4,7 99,8 308,6
08/2019 17,2 20,2 25,4 25,7 26,0 31,4 38,8 21,6 33 65 83 1.010 1.016 1.020 SE 4,3 46,7 125,0
07/2019 18,3 20,4 26,5 26,5 27,1 32,4 39,2 20,9 34 55 77 1.006 1.014 1.021 NNW 4,8 59,5 3,6
06/2019 10,9 15,9 19,7 22,2 20,3 28,2 37,5 26,6 34 56 79 1.009 1.016 1.022 NW 5,5 51,5 2,2
05/2019 7,8 12,6 20,3 17,9 18,1 23,5 30,8 23,0 47 65 80 1.006 1.016 1.025 NW 5,3 64,4 26,0
04/2019 7,2 10,4 13,9 14,5 13,1 18,9 27,7 20,5 36 68 94 1.000 1.013 1.026 WSW 8,2 85,3 377,0
03/2019 4,5 8,3 15,4 13,5 12,4 18,9 27,1 22,6 30 58 90 1.011 1.023 1.031 WSW 6,4 59,5 90,8
02/2019 2,2 6,1 11,1 11,2 10,9 17,1 23,3 21,1 36 61 82 996 1.026 1.034 WSW 7,2 95,0 0,2
01/2019 0,7 6,0 12,6 10,2 10,7 15,6 20,3 19,6 38 60 82 1.004 1.020 1.032 W 8,3 98,2 5,8
Tots els anys disponibles
2019 0,7 12,8 26,5 17,6 10,7 22,8 39,2 38,5 30 64 94 996 1.017 1.034 SE 6,4 99,8 1.305,2
2018 1,3 13,0 24,3 17,6 6,9 22,6 36,4 35,1 42 70 93 1.000 1.019 1.032 WNW 5,8 95,0 795,0
2017 1,2 14,9 25,4 19,9 10,3 25,4 38,9 37,7 WNW 5,4 106,2 226,2
Temperatura (°C)
Humitat relativa (%)
Velocitat del vent i ràfega màxima (km/h)
Direcció del vent (°)
Pressió (hPa)
Precipitació (mm)
Nota sobre les dades: s'avisa a l'usuari de la provisionalitat i no oficialitat d'aquestes dades
Logo AVAMET blanc
Web allotjada a Sollutia
Llicència de Creative CommonsLa web d'AVAMET i els seus continguts estan subjectes a una llicència de
Reconeixement - No Comercial - Compartir igual
Últimes estacions:  Forcall (Ajuntament Soci), Sant Joanet (Soci), Marines (Soci), Vilallonga - Serpis (Soci), Sorita (AVAMET), Gorga (Soci) - - -